createdAt,value
2022-12-20T00:02:28.776Z,-2.05
2022-12-20T00:05:01.824Z,-2.05
2022-12-20T00:07:34.482Z,-2.15
2022-12-20T00:10:08.192Z,-2.27
2022-12-20T00:12:40.510Z,-2.23
2022-12-20T00:15:12.792Z,-2.25
2022-12-20T00:17:45.166Z,-2.25
2022-12-20T00:20:18.277Z,-2.28
2022-12-20T00:22:50.666Z,-2.39
2022-12-20T00:25:23.658Z,-2.44
2022-12-20T00:27:56.004Z,-2.44
2022-12-20T00:30:28.341Z,-2.59
2022-12-20T00:33:00.885Z,-2.59
2022-12-20T00:35:34.188Z,-2.64
2022-12-20T00:38:06.523Z,-2.62
2022-12-20T00:40:39.102Z,-2.61
2022-12-20T00:43:12.283Z,-2.59
2022-12-20T00:45:44.666Z,-2.60
2022-12-20T00:48:16.963Z,-2.61
2022-12-20T00:50:50.331Z,-2.64
2022-12-20T00:53:26.319Z,-2.70
2022-12-20T00:55:59.411Z,-2.68
2022-12-20T00:58:33.124Z,-2.72
2022-12-20T01:01:13.952Z,-2.79
2022-12-20T01:03:46.572Z,-2.91
2022-12-20T01:06:21.034Z,-2.90
2022-12-20T01:08:54.458Z,-2.94
2022-12-20T01:11:29.051Z,-3.06
2022-12-20T01:14:04.113Z,-3.10
2022-12-20T01:16:38.690Z,-3.16
2022-12-20T01:19:12.672Z,-3.16
2022-12-20T01:21:46.131Z,-3.22
2022-12-20T01:24:19.716Z,-3.36
2022-12-20T01:26:52.040Z,-3.40
2022-12-20T01:29:24.376Z,-3.46
2022-12-20T01:31:56.809Z,-3.48
2022-12-20T01:34:29.185Z,-3.38
2022-12-20T01:37:02.245Z,-3.42
2022-12-20T01:39:34.621Z,-3.44
2022-12-20T01:42:06.959Z,-3.44
2022-12-20T01:44:55.902Z,-3.37
2022-12-20T01:47:32.944Z,-3.31
2022-12-20T01:50:07.459Z,-3.25
2022-12-20T01:52:45.067Z,-3.18
2022-12-20T01:55:21.644Z,-3.16
2022-12-20T01:58:00.104Z,-3.27
2022-12-20T02:00:32.476Z,-3.28
2022-12-20T02:03:06.875Z,-3.22
2022-12-20T02:05:42.081Z,-3.26
2022-12-20T02:08:18.909Z,-3.26
2022-12-20T02:11:10.212Z,-3.26
2022-12-20T02:13:51.355Z,-3.38
2022-12-20T02:16:27.660Z,-3.38
2022-12-20T02:19:06.904Z,-3.48
2022-12-20T02:21:42.814Z,-3.49
2022-12-20T02:24:41.294Z,-3.44
2022-12-20T02:27:38.507Z,-3.39
2022-12-20T02:30:14.243Z,-3.51
2022-12-20T02:32:59.105Z,-3.46
2022-12-20T02:35:34.317Z,-3.51
2022-12-20T02:38:26.785Z,-3.50
2022-12-20T02:41:02.485Z,-3.46
2022-12-20T02:43:55.789Z,-3.37
2022-12-20T02:46:30.602Z,-3.36
2022-12-20T02:49:10.734Z,-3.40
2022-12-20T02:51:46.478Z,-3.39
2022-12-20T02:54:19.331Z,-3.54
2022-12-20T02:56:59.773Z,-3.50
2022-12-20T02:59:37.206Z,-3.79
2022-12-20T03:02:11.195Z,-3.62
2022-12-20T03:04:44.040Z,-3.57
2022-12-20T03:07:17.608Z,-3.54
2022-12-20T03:09:49.969Z,-3.60
2022-12-20T03:12:22.300Z,-3.63
2022-12-20T03:14:55.843Z,-3.74
2022-12-20T03:17:28.901Z,-3.88
2022-12-20T03:20:01.214Z,-3.91
2022-12-20T03:22:34.403Z,-3.91
2022-12-20T03:25:08.057Z,-3.87
2022-12-20T03:27:40.549Z,-3.85
2022-12-20T03:30:15.023Z,-3.86
2022-12-20T03:32:48.142Z,-3.85
2022-12-20T03:35:20.845Z,-3.93
2022-12-20T03:37:53.230Z,-3.90
2022-12-20T03:40:25.560Z,-3.86
2022-12-20T03:42:58.054Z,-3.87
2022-12-20T03:45:30.378Z,-3.85
2022-12-20T03:48:03.608Z,-3.84
2022-12-20T03:50:37.433Z,-3.83
2022-12-20T03:53:09.990Z,-3.79
2022-12-20T03:55:45.363Z,-3.82
2022-12-20T03:58:18.983Z,-3.81
2022-12-20T04:00:51.560Z,-3.77
2022-12-20T04:03:41.957Z,-3.77
2022-12-20T04:06:14.484Z,-3.75
2022-12-20T04:08:47.175Z,-3.74
2022-12-20T04:11:27.421Z,-3.73
2022-12-20T04:14:06.750Z,-3.80
2022-12-20T04:16:39.313Z,-3.73
2022-12-20T04:19:13.145Z,-3.81
2022-12-20T04:21:51.965Z,-3.90
2022-12-20T04:24:25.812Z,-3.93
2022-12-20T04:27:10.246Z,-3.98
2022-12-20T04:29:42.618Z,-3.94
2022-12-20T04:32:17.616Z,-3.97
2022-12-20T04:34:50.743Z,-3.97
2022-12-20T04:37:23.735Z,-3.97
2022-12-20T04:39:59.300Z,-3.98
2022-12-20T04:42:41.819Z,-4.00
2022-12-20T04:45:16.208Z,-4.06
2022-12-20T04:47:48.551Z,-4.00
2022-12-20T04:50:25.283Z,-3.99
2022-12-20T04:53:30.422Z,-4.02
2022-12-20T04:56:03.571Z,-4.08
2022-12-20T04:58:36.096Z,-4.12
2022-12-20T05:01:10.661Z,-4.18
2022-12-20T05:03:50.899Z,-4.14
2022-12-20T05:06:23.933Z,-4.16
2022-12-20T05:08:56.597Z,-4.19
2022-12-20T05:11:28.980Z,-4.20
2022-12-20T05:14:01.538Z,-4.22
2022-12-20T05:16:34.026Z,-4.24
2022-12-20T05:19:06.869Z,-4.34
2022-12-20T05:21:59.253Z,-4.35
2022-12-20T05:24:51.747Z,-4.37
2022-12-20T05:27:33.672Z,-4.40
2022-12-20T05:30:07.295Z,-4.45
2022-12-20T05:32:39.695Z,-4.45
2022-12-20T05:35:13.453Z,-4.42
2022-12-20T05:37:46.948Z,-4.46
2022-12-20T05:40:23.270Z,-4.43
2022-12-20T05:42:56.111Z,-4.42
2022-12-20T05:45:37.623Z,-4.49
2022-12-20T05:48:17.369Z,-4.51
2022-12-20T05:50:49.817Z,-4.50
2022-12-20T05:53:34.320Z,-4.51
2022-12-20T05:56:09.477Z,-4.49
2022-12-20T05:58:44.007Z,-4.51
2022-12-20T06:01:16.648Z,-4.63
2022-12-20T06:03:50.537Z,-4.62
2022-12-20T06:06:23.271Z,-4.66
2022-12-20T06:08:56.383Z,-4.72
2022-12-20T06:11:43.271Z,-4.73
2022-12-20T06:14:19.198Z,-4.75
2022-12-20T06:16:53.600Z,-4.70
2022-12-20T06:19:26.116Z,-4.69
2022-12-20T06:22:00.755Z,-4.71
2022-12-20T06:24:54.908Z,-4.71
2022-12-20T06:27:31.605Z,-4.91
2022-12-20T06:30:22.699Z,-4.83
2022-12-20T06:33:04.048Z,-4.96
2022-12-20T06:35:37.241Z,-4.99
2022-12-20T06:38:11.642Z,-4.92
2022-12-20T06:40:44.679Z,-4.96
2022-12-20T06:43:17.052Z,-4.92
2022-12-20T06:45:49.492Z,-4.87
2022-12-20T06:48:21.914Z,-4.86
2022-12-20T06:50:56.295Z,-4.80
2022-12-20T06:53:30.800Z,-4.88
2022-12-20T06:56:04.355Z,-4.92
2022-12-20T06:58:37.553Z,-4.86
2022-12-20T07:01:10.019Z,-4.87
2022-12-20T07:03:42.413Z,-4.85
2022-12-20T07:06:14.812Z,-4.82
2022-12-20T07:08:47.169Z,-4.81
2022-12-20T07:11:20.177Z,-4.74
2022-12-20T07:13:55.503Z,-4.74
2022-12-20T07:16:27.833Z,-4.70
2022-12-20T07:19:00.214Z,-4.73
2022-12-20T07:21:32.493Z,-4.79
2022-12-20T07:24:05.741Z,-4.81
2022-12-20T07:26:38.763Z,-4.72
2022-12-20T07:29:15.447Z,-4.62
2022-12-20T07:31:48.472Z,-4.56
2022-12-20T07:34:20.929Z,-4.55
2022-12-20T07:36:53.299Z,-4.61
2022-12-20T07:39:25.679Z,-4.76
2022-12-20T07:41:59.039Z,-4.76
2022-12-20T07:44:31.331Z,-4.54
2022-12-20T07:47:03.678Z,-4.52
2022-12-20T07:49:36.891Z,-4.45
2022-12-20T07:52:11.457Z,-4.31
2022-12-20T07:54:47.606Z,-4.13
2022-12-20T07:57:25.019Z,-3.98
2022-12-20T08:00:00.470Z,-3.95
2022-12-20T08:02:37.723Z,-3.95
2022-12-20T08:05:10.874Z,-3.85
2022-12-20T08:07:44.497Z,-3.82
2022-12-20T08:10:19.029Z,-3.81
2022-12-20T08:12:52.105Z,-3.75
2022-12-20T08:15:24.935Z,-3.70
2022-12-20T08:17:57.269Z,-3.77
2022-12-20T08:20:29.615Z,-3.81
2022-12-20T08:23:03.091Z,-3.99
2022-12-20T08:25:41.095Z,-3.69
2022-12-20T08:28:14.649Z,-3.52
2022-12-20T08:30:46.994Z,-3.39
2022-12-20T08:33:19.414Z,-3.29
2022-12-20T08:35:57.570Z,-3.15
2022-12-20T08:38:30.862Z,-3.15
2022-12-20T08:41:04.754Z,-3.14
2022-12-20T08:43:38.742Z,-3.03
2022-12-20T08:46:11.862Z,-2.99
2022-12-20T08:48:44.291Z,-2.87
2022-12-20T08:51:16.623Z,-2.65
2022-12-20T08:53:49.022Z,-2.71
2022-12-20T08:56:22.392Z,-2.72
2022-12-20T08:58:55.362Z,-2.69
2022-12-20T09:01:29.731Z,-2.61
2022-12-20T09:04:02.246Z,-2.46
2022-12-20T09:06:34.952Z,-2.17
2022-12-20T09:09:07.278Z,-2.23
2022-12-20T09:11:39.863Z,-2.15
2022-12-20T09:14:13.195Z,-1.94
2022-12-20T09:16:45.534Z,-1.91
2022-12-20T09:19:17.831Z,-1.82
2022-12-20T09:21:50.064Z,-1.69
2022-12-20T09:24:22.318Z,-1.49
2022-12-20T09:26:54.575Z,-1.29
2022-12-20T09:29:33.671Z,-1.05
2022-12-20T09:32:08.128Z,-0.98
2022-12-20T09:34:40.466Z,-0.85
2022-12-20T09:37:12.728Z,-0.58
2022-12-20T09:39:44.972Z,-0.42
2022-12-20T09:42:26.580Z,-0.30
2022-12-20T09:45:05.775Z,-0.20
2022-12-20T09:47:38.485Z,-0.08
2022-12-20T09:50:16.141Z,0.23
2022-12-20T09:53:01.701Z,0.47
2022-12-20T09:55:39.035Z,0.38
2022-12-20T09:58:32.599Z,0.42
2022-12-20T10:01:21.407Z,0.53
2022-12-20T10:03:59.242Z,0.65
2022-12-20T10:06:44.214Z,0.60
2022-12-20T10:09:40.052Z,0.74
2022-12-20T10:12:24.173Z,0.80
2022-12-20T10:15:10.636Z,0.86
2022-12-20T10:17:55.389Z,0.74
2022-12-20T10:20:41.046Z,0.57
2022-12-20T10:23:26.572Z,0.71
2022-12-20T10:26:08.852Z,0.67
2022-12-20T10:28:41.273Z,0.95
2022-12-20T10:31:15.562Z,0.93
2022-12-20T10:33:48.778Z,0.83
2022-12-20T10:36:26.084Z,0.89
2022-12-20T10:39:00.257Z,1.14
2022-12-20T10:41:48.114Z,1.05
2022-12-20T10:44:25.478Z,1.13
2022-12-20T10:46:59.438Z,1.00
2022-12-20T10:49:34.211Z,1.17
2022-12-20T10:52:13.624Z,1.29
2022-12-20T10:54:47.161Z,1.30
2022-12-20T10:57:22.881Z,1.32
2022-12-20T10:59:57.293Z,1.41
2022-12-20T11:02:39.569Z,1.63
2022-12-20T11:05:23.193Z,1.71
2022-12-20T11:10:51.196Z,2.09
2022-12-20T11:13:26.249Z,2.20
2022-12-20T11:16:00.791Z,2.23
2022-12-20T11:18:44.639Z,1.96
2022-12-20T11:21:30.784Z,1.89
2022-12-20T11:24:11.302Z,2.18
2022-12-20T11:27:01.230Z,1.88
2022-12-20T11:30:05.685Z,2.20
2022-12-20T11:33:04.178Z,2.13
2022-12-20T11:35:47.158Z,2.27
2022-12-20T11:38:34.579Z,2.43
2022-12-20T11:41:21.397Z,2.45
2022-12-20T11:47:16.924Z,2.10
2022-12-20T11:50:26.306Z,2.03
2022-12-20T11:53:03.069Z,2.10
2022-12-20T11:55:51.825Z,1.84
2022-12-20T11:58:29.006Z,1.81
2022-12-20T12:01:08.975Z,1.77
2022-12-20T12:03:46.946Z,1.92
2022-12-20T12:06:25.551Z,2.03
2022-12-20T12:09:08.730Z,2.11
2022-12-20T12:14:47.737Z,2.14
2022-12-20T12:17:28.518Z,2.13
2022-12-20T12:20:18.792Z,1.92
2022-12-20T12:22:55.520Z,2.10
2022-12-20T12:25:27.936Z,2.39
2022-12-20T12:28:01.485Z,2.26
2022-12-20T12:30:39.569Z,2.21
2022-12-20T12:33:22.115Z,2.05
2022-12-20T12:36:17.996Z,2.29
2022-12-20T12:39:26.102Z,2.33
2022-12-20T12:42:16.300Z,2.50
2022-12-20T12:44:54.177Z,2.46
2022-12-20T12:47:35.961Z,2.44
2022-12-20T12:50:19.977Z,2.40
2022-12-20T12:52:55.195Z,2.36
2022-12-20T12:55:43.127Z,2.38
2022-12-20T12:58:34.025Z,2.22
2022-12-20T13:01:10.277Z,2.21
2022-12-20T13:04:01.556Z,2.17
2022-12-20T13:07:25.372Z,2.09
2022-12-20T13:09:58.433Z,1.94
2022-12-20T13:12:56.143Z,2.07
2022-12-20T13:15:52.272Z,1.83
2022-12-20T13:18:26.573Z,1.71
2022-12-20T13:21:38.121Z,1.75
2022-12-20T13:24:52.328Z,1.73
2022-12-20T13:27:28.550Z,1.71
2022-12-20T13:30:28.176Z,1.54
2022-12-20T13:33:15.168Z,1.42
2022-12-20T13:35:56.902Z,1.31
2022-12-20T13:38:51.428Z,1.21
2022-12-20T13:41:34.993Z,1.13
2022-12-20T13:44:44.424Z,0.73
2022-12-20T13:47:31.536Z,0.59
2022-12-20T13:50:23.925Z,0.68
2022-12-20T13:52:57.987Z,0.66
2022-12-20T13:55:39.259Z,0.62
2022-12-20T13:58:15.545Z,0.62
2022-12-20T14:00:49.334Z,0.62
2022-12-20T14:03:24.866Z,0.71
2022-12-20T14:06:00.949Z,0.75
2022-12-20T14:08:37.961Z,0.74
2022-12-20T14:11:11.847Z,0.77
2022-12-20T14:13:51.989Z,0.88
2022-12-20T14:16:26.307Z,0.92
2022-12-20T14:19:02.998Z,0.85
2022-12-20T14:21:37.077Z,0.75
2022-12-20T14:24:15.103Z,0.63
2022-12-20T14:26:50.864Z,0.67
2022-12-20T14:29:28.868Z,0.68
2022-12-20T14:32:01.405Z,0.60
2022-12-20T14:34:41.357Z,0.39
2022-12-20T14:37:30.474Z,0.32
2022-12-20T14:40:16.713Z,0.23
2022-12-20T14:42:49.120Z,0.19
2022-12-20T14:45:25.361Z,0.18
2022-12-20T14:48:02.305Z,0.17
2022-12-20T14:50:36.523Z,0.10
2022-12-20T14:53:19.713Z,0.13
2022-12-20T14:55:52.880Z,0.05
2022-12-20T14:58:28.231Z,0.07
2022-12-20T15:01:03.261Z,0.15
2022-12-20T15:03:36.059Z,0.18
2022-12-20T15:06:31.629Z,0.15
2022-12-20T15:09:04.948Z,0.15
2022-12-20T15:11:38.722Z,0.02
2022-12-20T15:14:26.667Z,0.07
2022-12-20T15:16:59.150Z,0.07
2022-12-20T15:19:35.196Z,0.08
2022-12-20T15:22:14.756Z,0.07
2022-12-20T15:24:47.062Z,0.08
2022-12-20T15:27:20.071Z,0.09
2022-12-20T15:29:52.401Z,0.09
2022-12-20T15:32:28.896Z,0.09
2022-12-20T15:35:02.987Z,0.07
2022-12-20T15:37:35.354Z,0.05
2022-12-20T15:40:13.528Z,0.01
2022-12-20T15:42:46.637Z,0.01
2022-12-20T15:45:19.044Z,-0.06
2022-12-20T15:47:51.433Z,-0.07
2022-12-20T15:50:23.729Z,-0.06
2022-12-20T15:52:57.532Z,-0.12
2022-12-20T15:55:34.273Z,-0.17
2022-12-20T15:58:10.796Z,-0.27
2022-12-20T16:00:43.197Z,-0.29
2022-12-20T16:03:18.963Z,-0.36
2022-12-20T16:05:51.515Z,-0.40
2022-12-20T16:08:24.188Z,-0.43
2022-12-20T16:10:56.471Z,-0.48
2022-12-20T16:13:29.610Z,-0.53
2022-12-20T16:16:02.354Z,-0.58
2022-12-20T16:18:35.086Z,-0.65
2022-12-20T16:21:14.629Z,-0.67
2022-12-20T16:23:47.716Z,-0.72
2022-12-20T16:26:22.264Z,-0.73
2022-12-20T16:28:56.201Z,-0.77
2022-12-20T16:31:31.138Z,-0.77
2022-12-20T16:34:05.640Z,-0.86
2022-12-20T16:36:37.940Z,-0.95
2022-12-20T16:39:10.630Z,-1.03
2022-12-20T16:41:44.105Z,-1.03
2022-12-20T16:44:18.672Z,-1.08
2022-12-20T16:46:51.269Z,-1.09
2022-12-20T16:49:23.701Z,-1.12
2022-12-20T16:51:56.390Z,-1.15
2022-12-20T16:54:28.762Z,-1.19
2022-12-20T16:57:01.428Z,-1.24
2022-12-20T16:59:34.506Z,-1.31
2022-12-20T17:02:22.138Z,-1.39
2022-12-20T17:04:54.656Z,-1.37
2022-12-20T17:07:27.244Z,-1.54
2022-12-20T17:09:59.661Z,-1.52
2022-12-20T17:12:32.046Z,-1.65
2022-12-20T17:15:06.490Z,-1.64
2022-12-20T17:17:38.788Z,-1.70
2022-12-20T17:20:12.371Z,-1.67
2022-12-20T17:25:39.412Z,-1.83
2022-12-20T17:28:11.718Z,-1.81
2022-12-20T17:30:44.850Z,-1.84
2022-12-20T17:33:17.100Z,-1.81
2022-12-20T17:35:49.468Z,-1.91
2022-12-20T17:38:21.932Z,-1.89
2022-12-20T17:40:55.768Z,-1.92
2022-12-20T17:43:28.105Z,-1.87
2022-12-20T17:46:01.438Z,-1.95
2022-12-20T17:48:37.698Z,-1.93
2022-12-20T17:51:17.833Z,-1.99
2022-12-20T17:53:51.994Z,-2.03
2022-12-20T17:56:26.873Z,-2.00
2022-12-20T17:59:00.342Z,-2.00
2022-12-20T18:01:34.983Z,-2.11
2022-12-20T18:04:09.211Z,-2.07
2022-12-20T18:06:44.027Z,-2.22
2022-12-20T18:09:18.683Z,-2.21
2022-12-20T18:11:51.127Z,-2.19
2022-12-20T18:14:23.455Z,-2.22
2022-12-20T18:16:57.976Z,-2.19
2022-12-20T18:19:31.139Z,-2.20
2022-12-20T18:22:04.259Z,-2.25
2022-12-20T18:24:36.629Z,-2.43
2022-12-20T18:27:09.267Z,-2.41
2022-12-20T18:29:41.822Z,-2.38
2022-12-20T18:32:14.937Z,-2.35
2022-12-20T18:34:48.094Z,-2.33
2022-12-20T18:37:20.558Z,-2.30
2022-12-20T18:39:52.874Z,-2.23
2022-12-20T18:42:25.329Z,-2.29
2022-12-20T18:44:57.701Z,-2.27
2022-12-20T18:47:31.667Z,-2.20
2022-12-20T18:50:04.925Z,-2.20
2022-12-20T18:52:40.506Z,-2.17
2022-12-20T18:55:14.960Z,-2.16
2022-12-20T18:57:47.966Z,-2.19
2022-12-20T19:00:21.303Z,-2.17
2022-12-20T19:02:58.704Z,-2.18
2022-12-20T19:05:32.844Z,-2.14
2022-12-20T19:08:05.436Z,-2.13
2022-12-20T19:10:38.061Z,-2.17
2022-12-20T19:13:10.479Z,-2.13
2022-12-20T19:15:42.835Z,-2.14
2022-12-20T19:18:15.902Z,-2.11
2022-12-20T19:20:48.193Z,-2.08
2022-12-20T19:23:21.778Z,-2.16
2022-12-20T19:25:58.517Z,-2.18
2022-12-20T19:28:34.809Z,-2.20
2022-12-20T19:31:07.887Z,-2.19
2022-12-20T19:33:42.578Z,-2.20
2022-12-20T19:36:16.711Z,-2.20
2022-12-20T19:38:50.696Z,-2.38
2022-12-20T19:41:25.296Z,-2.36
2022-12-20T19:43:57.730Z,-2.35
2022-12-20T19:46:30.463Z,-2.40
2022-12-20T19:49:03.710Z,-2.34
2022-12-20T19:51:36.029Z,-2.39
2022-12-20T19:54:09.179Z,-2.49
2022-12-20T19:56:41.530Z,-2.53
2022-12-20T19:59:15.240Z,-2.55
2022-12-20T20:01:47.592Z,-2.53
2022-12-20T20:04:20.898Z,-2.53
2022-12-20T20:06:53.244Z,-2.57
2022-12-20T20:09:25.785Z,-2.63
2022-12-20T20:11:58.393Z,-2.65
2022-12-20T20:14:30.782Z,-2.72
2022-12-20T20:17:03.151Z,-2.70
2022-12-20T20:19:37.270Z,-2.76
2022-12-20T20:22:10.116Z,-2.77
2022-12-20T20:24:43.349Z,-2.80
2022-12-20T20:27:15.702Z,-2.81
2022-12-20T20:29:49.661Z,-2.81
2022-12-20T20:32:22.053Z,-2.83
2022-12-20T20:34:55.148Z,-2.78
2022-12-20T20:37:27.606Z,-2.91
2022-12-20T20:39:59.977Z,-2.96
2022-12-20T20:42:32.715Z,-2.99
2022-12-20T20:45:06.089Z,-2.99
2022-12-20T20:47:38.437Z,-2.97
2022-12-20T20:50:11.990Z,-3.02
2022-12-20T20:52:44.546Z,-3.04
2022-12-20T20:55:17.434Z,-3.04
2022-12-20T20:57:50.045Z,-3.06
2022-12-20T21:00:23.177Z,-3.06
2022-12-20T21:02:56.147Z,-3.03
2022-12-20T21:08:21.867Z,-3.07
2022-12-20T21:10:54.616Z,-3.13
2022-12-20T21:13:27.174Z,-3.20
2022-12-20T21:16:05.580Z,-3.21
2022-12-20T21:18:38.226Z,-3.37
2022-12-20T21:21:12.709Z,-3.31
2022-12-20T21:23:46.598Z,-3.28
2022-12-20T21:26:20.493Z,-3.33
2022-12-20T21:28:56.572Z,-3.29
2022-12-20T21:31:30.108Z,-3.37
2022-12-20T21:34:02.596Z,-3.37
2022-12-20T21:36:35.680Z,-3.40
2022-12-20T21:39:11.341Z,-3.51
2022-12-20T21:41:43.732Z,-3.47
2022-12-20T21:44:16.070Z,-3.54
2022-12-20T21:46:48.555Z,-3.57
2022-12-20T21:49:20.942Z,-3.53
2022-12-20T21:51:55.758Z,-3.54
2022-12-20T21:54:28.103Z,-3.51
2022-12-20T21:57:00.929Z,-3.59
2022-12-20T21:59:33.282Z,-3.61
2022-12-20T22:02:06.267Z,-3.57
2022-12-20T22:04:38.738Z,-3.56
2022-12-20T22:07:12.132Z,-3.59
2022-12-20T22:09:44.473Z,-3.56
2022-12-20T22:12:16.879Z,-3.63
2022-12-20T22:14:49.296Z,-3.65
2022-12-20T22:17:22.155Z,-3.64
2022-12-20T22:19:54.499Z,-3.62
2022-12-20T22:22:27.625Z,-3.66
2022-12-20T22:24:59.963Z,-3.71
2022-12-20T22:27:32.638Z,-3.72
2022-12-20T22:30:06.407Z,-3.85
2022-12-20T22:32:38.777Z,-3.86
2022-12-20T22:35:11.128Z,-3.83
2022-12-20T22:37:44.377Z,-3.78
2022-12-20T22:40:16.999Z,-3.82
2022-12-20T22:42:49.416Z,-3.83
2022-12-20T22:45:21.727Z,-3.78
2022-12-20T22:47:54.087Z,-3.99
2022-12-20T22:50:26.368Z,-3.94
2022-12-20T22:52:59.389Z,-3.94
2022-12-20T22:55:33.945Z,-3.92
2022-12-20T22:58:06.323Z,-3.91
2022-12-20T23:00:38.585Z,-3.88
2022-12-20T23:03:11.266Z,-4.03
2022-12-20T23:05:51.438Z,-4.02
2022-12-20T23:08:25.627Z,-4.02
2022-12-20T23:11:16.012Z,-4.01
2022-12-20T23:14:06.496Z,-4.02
2022-12-20T23:16:38.994Z,-4.05
2022-12-20T23:19:11.765Z,-4.05
2022-12-20T23:22:02.234Z,-4.05
2022-12-20T23:24:35.566Z,-4.02
2022-12-20T23:27:07.859Z,-4.16
2022-12-20T23:29:40.223Z,-4.26
2022-12-20T23:32:12.563Z,-4.38
2022-12-20T23:34:45.236Z,-4.32
2022-12-20T23:37:17.524Z,-4.28
2022-12-20T23:39:50.572Z,-4.29
2022-12-20T23:42:23.356Z,-4.27
2022-12-20T23:44:55.826Z,-4.26
2022-12-20T23:47:28.109Z,-4.23
2022-12-20T23:50:00.417Z,-4.18
2022-12-20T23:52:32.735Z,-4.20
2022-12-20T23:55:06.588Z,-4.25
2022-12-20T23:57:39.265Z,-4.28
